sensor_id;sensor_type;location;lat;lon;timestamp;P1;durP1;ratioP1;P2;durP2;ratioP2
40515;SDS011;26216;53.724;9.898;2022-09-12T00:00:03;3.70;;;1.27;;
40515;SDS011;26216;53.724;9.898;2022-09-12T00:02:30;0.80;;;0.75;;
40515;SDS011;26216;53.724;9.898;2022-09-12T00:04:56;1.50;;;1.10;;
40515;SDS011;26216;53.724;9.898;2022-09-12T00:07:22;1.63;;;1.00;;
40515;SDS011;26216;53.724;9.898;2022-09-12T00:09:48;1.75;;;1.20;;
40515;SDS011;26216;53.724;9.898;2022-09-12T00:12:14;1.60;;;1.02;;
40515;SDS011;26216;53.724;9.898;2022-09-12T00:14:39;1.27;;;0.98;;
40515;SDS011;26216;53.724;9.898;2022-09-12T00:17:05;1.23;;;0.95;;
40515;SDS011;26216;53.724;9.898;2022-09-12T00:19:31;1.90;;;1.10;;
40515;SDS011;26216;53.724;9.898;2022-09-12T00:21:57;2.17;;;1.10;;
40515;SDS011;26216;53.724;9.898;2022-09-12T00:24:23;1.35;;;0.93;;
40515;SDS011;26216;53.724;9.898;2022-09-12T00:26:48;1.92;;;1.13;;
40515;SDS011;26216;53.724;9.898;2022-09-12T00:29:18;1.17;;;0.90;;
40515;SDS011;26216;53.724;9.898;2022-09-12T00:31:46;1.30;;;1.02;;
40515;SDS011;26216;53.724;9.898;2022-09-12T00:34:12;1.00;;;0.82;;
40515;SDS011;26216;53.724;9.898;2022-09-12T00:36:38;1.17;;;0.90;;
40515;SDS011;26216;53.724;9.898;2022-09-12T00:39:05;1.23;;;0.90;;
40515;SDS011;26216;53.724;9.898;2022-09-12T00:41:33;1.27;;;1.02;;
40515;SDS011;26216;53.724;9.898;2022-09-12T00:44:02;1.73;;;0.90;;
40515;SDS011;26216;53.724;9.898;2022-09-12T00:49:07;1.27;;;0.90;;
40515;SDS011;26216;53.724;9.898;2022-09-12T00:51:46;1.08;;;0.80;;
40515;SDS011;26216;53.724;9.898;2022-09-12T00:54:24;0.95;;;0.82;;
40515;SDS011;26216;53.724;9.898;2022-09-12T00:56:52;1.33;;;0.93;;
40515;SDS011;26216;53.724;9.898;2022-09-12T00:59:24;0.93;;;0.68;;
40515;SDS011;26216;53.724;9.898;2022-09-12T01:01:53;1.20;;;0.80;;
40515;SDS011;26216;53.724;9.898;2022-09-12T01:04:21;1.30;;;0.98;;
40515;SDS011;26216;53.724;9.898;2022-09-12T01:06:49;1.77;;;1.10;;
40515;SDS011;26216;53.724;9.898;2022-09-12T01:09:17;1.15;;;0.98;;
40515;SDS011;26216;53.724;9.898;2022-09-12T01:11:45;1.25;;;1.10;;
40515;SDS011;26216;53.724;9.898;2022-09-12T01:14:13;2.20;;;1.08;;
40515;SDS011;26216;53.724;9.898;2022-09-12T01:16:40;1.83;;;0.90;;
40515;SDS011;26216;53.724;9.898;2022-09-12T01:35:58;1.13;;;1.00;;
40515;SDS011;26216;53.724;9.898;2022-09-12T01:38:43;1.10;;;0.93;;
40515;SDS011;26216;53.724;9.898;2022-09-12T01:41:43;1.25;;;0.85;;
40515;SDS011;26216;53.724;9.898;2022-09-12T01:47:05;2.05;;;0.90;;
40515;SDS011;26216;53.724;9.898;2022-09-12T01:52:08;0.70;;;0.70;;
40515;SDS011;26216;53.724;9.898;2022-09-12T01:57:44;2.00;;;0.90;;
40515;SDS011;26216;53.724;9.898;2022-09-12T02:00:14;0.90;;;0.80;;
40515;SDS011;26216;53.724;9.898;2022-09-12T02:02:55;1.00;;;0.80;;
40515;SDS011;26216;53.724;9.898;2022-09-12T02:05:29;1.33;;;0.90;;
40515;SDS011;26216;53.724;9.898;2022-09-12T02:08:17;1.55;;;0.85;;
40515;SDS011;26216;53.724;9.898;2022-09-12T02:10:53;0.90;;;0.90;;
40515;SDS011;26216;53.724;9.898;2022-09-12T02:16:00;1.25;;;0.90;;
40515;SDS011;26216;53.724;9.898;2022-09-12T02:18:32;1.27;;;0.90;;
40515;SDS011;26216;53.724;9.898;2022-09-12T02:21:01;1.10;;;0.90;;
40515;SDS011;26216;53.724;9.898;2022-09-12T02:23:30;0.80;;;0.70;;
40515;SDS011;26216;53.724;9.898;2022-09-12T02:26:01;1.55;;;0.95;;
40515;SDS011;26216;53.724;9.898;2022-09-12T02:28:36;1.13;;;0.90;;
40515;SDS011;26216;53.724;9.898;2022-09-12T02:31:48;1.52;;;0.82;;
40515;SDS011;26216;53.724;9.898;2022-09-12T02:39:13;1.42;;;1.17;;
40515;SDS011;26216;53.724;9.898;2022-09-12T02:41:45;1.30;;;0.93;;
40515;SDS011;26216;53.724;9.898;2022-09-12T02:44:19;1.80;;;1.02;;
40515;SDS011;26216;53.724;9.898;2022-09-12T02:46:47;1.10;;;0.98;;
40515;SDS011;26216;53.724;9.898;2022-09-12T02:49:17;1.13;;;1.02;;
40515;SDS011;26216;53.724;9.898;2022-09-12T02:51:44;1.50;;;1.20;;
40515;SDS011;26216;53.724;9.898;2022-09-12T02:54:12;1.15;;;1.05;;
40515;SDS011;26216;53.724;9.898;2022-09-12T02:56:40;1.40;;;1.10;;
40515;SDS011;26216;53.724;9.898;2022-09-12T02:59:08;0.95;;;0.88;;
40515;SDS011;26216;53.724;9.898;2022-09-12T03:04:35;1.25;;;1.00;;
40515;SDS011;26216;53.724;9.898;2022-09-12T03:07:13;1.55;;;1.23;;
40515;SDS011;26216;53.724;9.898;2022-09-12T03:10:09;1.73;;;1.25;;
40515;SDS011;26216;53.724;9.898;2022-09-12T03:15:50;1.40;;;0.98;;
40515;SDS011;26216;53.724;9.898;2022-09-12T03:18:22;1.55;;;1.00;;
40515;SDS011;26216;53.724;9.898;2022-09-12T03:21:25;1.50;;;1.02;;
40515;SDS011;26216;53.724;9.898;2022-09-12T03:26:49;1.00;;;0.90;;
40515;SDS011;26216;53.724;9.898;2022-09-12T03:29:25;1.38;;;1.10;;
40515;SDS011;26216;53.724;9.898;2022-09-12T03:31:54;1.63;;;1.30;;
40515;SDS011;26216;53.724;9.898;2022-09-12T03:34:22;1.40;;;1.20;;
40515;SDS011;26216;53.724;9.898;2022-09-12T03:36:50;1.70;;;1.10;;
40515;SDS011;26216;53.724;9.898;2022-09-12T03:39:19;1.13;;;1.02;;
40515;SDS011;26216;53.724;9.898;2022-09-12T03:41:48;1.75;;;1.10;;
40515;SDS011;26216;53.724;9.898;2022-09-12T03:44:15;1.25;;;1.13;;
40515;SDS011;26216;53.724;9.898;2022-09-12T03:46:41;1.20;;;1.10;;
40515;SDS011;26216;53.724;9.898;2022-09-12T03:49:07;1.48;;;1.10;;
40515;SDS011;26216;53.724;9.898;2022-09-12T03:51:33;1.80;;;1.13;;
40515;SDS011;26216;53.724;9.898;2022-09-12T03:53:59;1.92;;;1.17;;
40515;SDS011;26216;53.724;9.898;2022-09-12T03:56:25;1.33;;;1.10;;
40515;SDS011;26216;53.724;9.898;2022-09-12T03:58:50;1.20;;;1.10;;
40515;SDS011;26216;53.724;9.898;2022-09-12T04:01:17;1.23;;;0.82;;
40515;SDS011;26216;53.724;9.898;2022-09-12T04:03:45;2.03;;;1.20;;
40515;SDS011;26216;53.724;9.898;2022-09-12T04:06:13;2.08;;;1.20;;
40515;SDS011;26216;53.724;9.898;2022-09-12T04:08:41;1.00;;;0.90;;
40515;SDS011;26216;53.724;9.898;2022-09-12T04:11:12;1.40;;;1.13;;
40515;SDS011;26216;53.724;9.898;2022-09-12T04:13:39;1.05;;;0.95;;
40515;SDS011;26216;53.724;9.898;2022-09-12T04:16:06;1.23;;;1.00;;
40515;SDS011;26216;53.724;9.898;2022-09-12T04:18:33;1.30;;;1.08;;
40515;SDS011;26216;53.724;9.898;2022-09-12T04:21:03;1.48;;;1.17;;
40515;SDS011;26216;53.724;9.898;2022-09-12T04:23:30;2.08;;;1.20;;
40515;SDS011;26216;53.724;9.898;2022-09-12T04:25:56;1.80;;;1.10;;
40515;SDS011;26216;53.724;9.898;2022-09-12T04:28:24;1.15;;;1.00;;
40515;SDS011;26216;53.724;9.898;2022-09-12T04:30:53;2.58;;;1.20;;
40515;SDS011;26216;53.724;9.898;2022-09-12T04:33:20;1.38;;;1.02;;
40515;SDS011;26216;53.724;9.898;2022-09-12T04:35:46;2.33;;;1.25;;
40515;SDS011;26216;53.724;9.898;2022-09-12T04:38:13;1.90;;;1.40;;
40515;SDS011;26216;53.724;9.898;2022-09-12T04:40:39;1.67;;;1.40;;
40515;SDS011;26216;53.724;9.898;2022-09-12T04:43:05;1.58;;;1.20;;
40515;SDS011;26216;53.724;9.898;2022-09-12T04:45:32;1.73;;;1.33;;
40515;SDS011;26216;53.724;9.898;2022-09-12T04:47:58;2.03;;;1.40;;
40515;SDS011;26216;53.724;9.898;2022-09-12T04:50:23;2.38;;;1.50;;
40515;SDS011;26216;53.724;9.898;2022-09-12T04:52:50;2.13;;;1.50;;
40515;SDS011;26216;53.724;9.898;2022-09-12T04:55:17;1.65;;;1.38;;
40515;SDS011;26216;53.724;9.898;2022-09-12T04:57:43;1.80;;;1.50;;
40515;SDS011;26216;53.724;9.898;2022-09-12T05:00:09;2.35;;;1.80;;
40515;SDS011;26216;53.724;9.898;2022-09-12T05:02:37;2.20;;;1.90;;
40515;SDS011;26216;53.724;9.898;2022-09-12T05:05:04;3.05;;;2.03;;
40515;SDS011;26216;53.724;9.898;2022-09-12T05:07:30;2.15;;;1.80;;
40515;SDS011;26216;53.724;9.898;2022-09-12T05:09:56;1.70;;;1.50;;
40515;SDS011;26216;53.724;9.898;2022-09-12T05:12:22;2.75;;;1.70;;
40515;SDS011;26216;53.724;9.898;2022-09-12T05:14:48;1.98;;;1.70;;
40515;SDS011;26216;53.724;9.898;2022-09-12T05:17:14;2.15;;;1.52;;
40515;SDS011;26216;53.724;9.898;2022-09-12T05:19:40;2.30;;;1.60;;
40515;SDS011;26216;53.724;9.898;2022-09-12T05:22:06;2.38;;;1.75;;
40515;SDS011;26216;53.724;9.898;2022-09-12T05:24:32;3.08;;;1.83;;
40515;SDS011;26216;53.724;9.898;2022-09-12T05:26:59;3.05;;;1.85;;
40515;SDS011;26216;53.724;9.898;2022-09-12T05:29:26;3.75;;;2.55;;
40515;SDS011;26216;53.724;9.898;2022-09-12T05:31:52;3.80;;;2.95;;
40515;SDS011;26216;53.724;9.898;2022-09-12T05:34:19;5.30;;;4.40;;
40515;SDS011;26216;53.724;9.898;2022-09-12T05:36:45;5.30;;;4.32;;
40515;SDS011;26216;53.724;9.898;2022-09-12T05:39:11;5.72;;;4.82;;
40515;SDS011;26216;53.724;9.898;2022-09-12T05:41:37;5.28;;;4.30;;
40515;SDS011;26216;53.724;9.898;2022-09-12T05:44:03;5.03;;;4.25;;
40515;SDS011;26216;53.724;9.898;2022-09-12T05:46:35;5.38;;;4.65;;
40515;SDS011;26216;53.724;9.898;2022-09-12T05:49:06;4.88;;;4.28;;
40515;SDS011;26216;53.724;9.898;2022-09-12T05:51:35;4.78;;;4.00;;
40515;SDS011;26216;53.724;9.898;2022-09-12T05:56:33;4.07;;;3.20;;
40515;SDS011;26216;53.724;9.898;2022-09-12T05:59:03;4.70;;;3.63;;
40515;SDS011;26216;53.724;9.898;2022-09-12T06:01:32;4.43;;;2.90;;
40515;SDS011;26216;53.724;9.898;2022-09-12T06:04:00;3.53;;;3.03;;
40515;SDS011;26216;53.724;9.898;2022-09-12T06:06:28;3.17;;;2.75;;
40515;SDS011;26216;53.724;9.898;2022-09-12T06:08:56;3.50;;;2.90;;
40515;SDS011;26216;53.724;9.898;2022-09-12T06:11:27;3.80;;;3.20;;
40515;SDS011;26216;53.724;9.898;2022-09-12T06:13:54;3.97;;;3.58;;
40515;SDS011;26216;53.724;9.898;2022-09-12T06:16:23;3.50;;;3.03;;
40515;SDS011;26216;53.724;9.898;2022-09-12T06:18:52;3.88;;;3.25;;
40515;SDS011;26216;53.724;9.898;2022-09-12T06:21:32;5.17;;;3.87;;
40515;SDS011;26216;53.724;9.898;2022-09-12T06:23:59;3.90;;;3.22;;
40515;SDS011;26216;53.724;9.898;2022-09-12T06:26:26;3.63;;;2.95;;
40515;SDS011;26216;53.724;9.898;2022-09-12T06:28:54;4.22;;;3.65;;
40515;SDS011;26216;53.724;9.898;2022-09-12T06:31:25;3.72;;;3.40;;
40515;SDS011;26216;53.724;9.898;2022-09-12T06:33:53;4.97;;;3.75;;
40515;SDS011;26216;53.724;9.898;2022-09-12T06:36:21;4.13;;;3.45;;
40515;SDS011;26216;53.724;9.898;2022-09-12T06:38:55;4.18;;;3.60;;
40515;SDS011;26216;53.724;9.898;2022-09-12T06:41:23;3.30;;;2.78;;
40515;SDS011;26216;53.724;9.898;2022-09-12T06:43:50;4.15;;;3.33;;
40515;SDS011;26216;53.724;9.898;2022-09-12T06:46:19;3.90;;;3.50;;
40515;SDS011;26216;53.724;9.898;2022-09-12T06:48:45;4.00;;;3.45;;
40515;SDS011;26216;53.724;9.898;2022-09-12T06:51:12;3.53;;;3.03;;
40515;SDS011;26216;53.724;9.898;2022-09-12T06:53:40;4.00;;;3.55;;
40515;SDS011;26216;53.724;9.898;2022-09-12T06:56:09;3.58;;;3.17;;
40515;SDS011;26216;53.724;9.898;2022-09-12T06:58:46;4.00;;;2.78;;
40515;SDS011;26216;53.724;9.898;2022-09-12T07:03:46;4.00;;;3.60;;
40515;SDS011;26216;53.724;9.898;2022-09-12T07:06:20;3.88;;;3.47;;
40515;SDS011;26216;53.724;9.898;2022-09-12T07:08:54;4.55;;;4.15;;
40515;SDS011;26216;53.724;9.898;2022-09-12T07:11:22;4.05;;;3.35;;
40515;SDS011;26216;53.724;9.898;2022-09-12T07:13:50;3.50;;;3.20;;
40515;SDS011;26216;53.724;9.898;2022-09-12T07:16:21;4.82;;;3.20;;
40515;SDS011;26216;53.724;9.898;2022-09-12T07:18:51;3.92;;;3.33;;
40515;SDS011;26216;53.724;9.898;2022-09-12T07:21:19;3.60;;;3.20;;
40515;SDS011;26216;53.724;9.898;2022-09-12T07:23:45;4.43;;;3.42;;
40515;SDS011;26216;53.724;9.898;2022-09-12T07:26:12;3.90;;;3.50;;
40515;SDS011;26216;53.724;9.898;2022-09-12T07:28:38;3.88;;;3.20;;
40515;SDS011;26216;53.724;9.898;2022-09-12T07:31:15;4.45;;;2.97;;
40515;SDS011;26216;53.724;9.898;2022-09-12T07:33:42;3.92;;;3.28;;
40515;SDS011;26216;53.724;9.898;2022-09-12T07:36:12;3.53;;;3.22;;
40515;SDS011;26216;53.724;9.898;2022-09-12T07:38:40;4.10;;;3.60;;
40515;SDS011;26216;53.724;9.898;2022-09-12T07:41:11;3.72;;;3.10;;
40515;SDS011;26216;53.724;9.898;2022-09-12T07:43:50;4.05;;;3.17;;
40515;SDS011;26216;53.724;9.898;2022-09-12T07:46:17;3.40;;;2.95;;
40515;SDS011;26216;53.724;9.898;2022-09-12T07:48:42;3.88;;;3.45;;
40515;SDS011;26216;53.724;9.898;2022-09-12T07:51:09;4.22;;;3.33;;
40515;SDS011;26216;53.724;9.898;2022-09-12T07:53:39;4.80;;;3.72;;
40515;SDS011;26216;53.724;9.898;2022-09-12T07:58:34;3.88;;;3.47;;
40515;SDS011;26216;53.724;9.898;2022-09-12T08:03:28;3.58;;;3.25;;
40515;SDS011;26216;53.724;9.898;2022-09-12T08:05:54;4.88;;;3.38;;
40515;SDS011;26216;53.724;9.898;2022-09-12T08:08:31;4.07;;;2.97;;
40515;SDS011;26216;53.724;9.898;2022-09-12T08:10:59;5.75;;;3.88;;
40515;SDS011;26216;53.724;9.898;2022-09-12T08:13:26;4.10;;;3.13;;
40515;SDS011;26216;53.724;9.898;2022-09-12T08:16:00;3.72;;;3.33;;
40515;SDS011;26216;53.724;9.898;2022-09-12T08:18:28;4.47;;;3.28;;
40515;SDS011;26216;53.724;9.898;2022-09-12T08:20:56;3.83;;;3.20;;
40515;SDS011;26216;53.724;9.898;2022-09-12T08:23:25;3.78;;;2.75;;
40515;SDS011;26216;53.724;9.898;2022-09-12T08:25:58;3.40;;;2.80;;
40515;SDS011;26216;53.724;9.898;2022-09-12T08:28:25;3.85;;;2.80;;
40515;SDS011;26216;53.724;9.898;2022-09-12T08:30:52;2.80;;;2.20;;
40515;SDS011;26216;53.724;9.898;2022-09-12T08:33:19;3.70;;;2.78;;
40515;SDS011;26216;53.724;9.898;2022-09-12T08:35:45;3.20;;;2.60;;
40515;SDS011;26216;53.724;9.898;2022-09-12T08:38:11;3.53;;;2.65;;
40515;SDS011;26216;53.724;9.898;2022-09-12T08:41:24;3.15;;;2.40;;
40515;SDS011;26216;53.724;9.898;2022-09-12T08:46:27;4.78;;;3.13;;
40515;SDS011;26216;53.724;9.898;2022-09-12T08:49:37;4.55;;;3.03;;
40515;SDS011;26216;53.724;9.898;2022-09-12T08:52:25;3.88;;;2.80;;
40515;SDS011;26216;53.724;9.898;2022-09-12T08:54:55;3.47;;;2.85;;
40515;SDS011;26216;53.724;9.898;2022-09-12T08:57:22;4.93;;;2.33;;
40515;SDS011;26216;53.724;9.898;2022-09-12T08:59:48;3.00;;;2.40;;
40515;SDS011;26216;53.724;9.898;2022-09-12T09:05:15;2.47;;;1.77;;
40515;SDS011;26216;53.724;9.898;2022-09-12T09:10:47;2.80;;;2.00;;
40515;SDS011;26216;53.724;9.898;2022-09-12T09:13:22;2.13;;;1.40;;
40515;SDS011;26216;53.724;9.898;2022-09-12T09:16:34;1.75;;;1.50;;
40515;SDS011;26216;53.724;9.898;2022-09-12T09:19:25;2.47;;;1.50;;
40515;SDS011;26216;53.724;9.898;2022-09-12T09:24:44;3.15;;;1.50;;
40515;SDS011;26216;53.724;9.898;2022-09-12T09:29:58;1.90;;;1.45;;
40515;SDS011;26216;53.724;9.898;2022-09-12T09:32:32;1.48;;;1.30;;
40515;SDS011;26216;53.724;9.898;2022-09-12T09:35:13;1.10;;;1.00;;
40515;SDS011;26216;53.724;9.898;2022-09-12T09:38:06;1.20;;;1.00;;
40515;SDS011;26216;53.724;9.898;2022-09-12T09:40:44;1.10;;;0.98;;
40515;SDS011;26216;53.724;9.898;2022-09-12T09:43:26;1.50;;;1.10;;
40515;SDS011;26216;53.724;9.898;2022-09-12T09:45:53;1.17;;;1.00;;
40515;SDS011;26216;53.724;9.898;2022-09-12T09:48:33;1.08;;;0.90;;
40515;SDS011;26216;53.724;9.898;2022-09-12T09:51:02;1.50;;;1.20;;
40515;SDS011;26216;53.724;9.898;2022-09-12T09:56:36;1.38;;;1.00;;
40515;SDS011;26216;53.724;9.898;2022-09-12T09:59:16;1.92;;;1.30;;
40515;SDS011;26216;53.724;9.898;2022-09-12T10:02:01;1.35;;;1.02;;
40515;SDS011;26216;53.724;9.898;2022-09-12T10:04:57;1.65;;;1.13;;
40515;SDS011;26216;53.724;9.898;2022-09-12T10:07:24;0.85;;;0.80;;
40515;SDS011;26216;53.724;9.898;2022-09-12T10:12:38;0.82;;;0.65;;
40515;SDS011;26216;53.724;9.898;2022-09-12T10:15:18;0.90;;;0.77;;
40515;SDS011;26216;53.724;9.898;2022-09-12T10:17:48;1.10;;;0.70;;
40515;SDS011;26216;53.724;9.898;2022-09-12T10:20:29;0.47;;;0.47;;
40515;SDS011;26216;53.724;9.898;2022-09-12T10:25:54;0.70;;;0.70;;
40515;SDS011;26216;53.724;9.898;2022-09-12T10:28:31;1.48;;;0.93;;
40515;SDS011;26216;53.724;9.898;2022-09-12T10:31:03;0.95;;;0.73;;
40515;SDS011;26216;53.724;9.898;2022-09-12T10:33:32;0.82;;;0.75;;
40515;SDS011;26216;53.724;9.898;2022-09-12T10:36:07;1.52;;;1.10;;
40515;SDS011;26216;53.724;9.898;2022-09-12T10:38:33;1.70;;;1.00;;
40515;SDS011;26216;53.724;9.898;2022-09-12T10:41:03;2.45;;;0.80;;
40515;SDS011;26216;53.724;9.898;2022-09-12T10:45:58;1.80;;;0.95;;
40515;SDS011;26216;53.724;9.898;2022-09-12T10:48:48;0.65;;;0.63;;
40515;SDS011;26216;53.724;9.898;2022-09-12T10:51:25;1.10;;;0.98;;
40515;SDS011;26216;53.724;9.898;2022-09-12T10:53:54;0.70;;;0.70;;
40515;SDS011;26216;53.724;9.898;2022-09-12T10:56:22;1.08;;;0.70;;
40515;SDS011;26216;53.724;9.898;2022-09-12T11:01:38;1.55;;;1.13;;
40515;SDS011;26216;53.724;9.898;2022-09-12T11:09:55;1.33;;;1.10;;
40515;SDS011;26216;53.724;9.898;2022-09-12T11:15:24;1.33;;;0.85;;
40515;SDS011;26216;53.724;9.898;2022-09-12T11:18:06;1.60;;;0.73;;
40515;SDS011;26216;53.724;9.898;2022-09-12T11:38:06;1.38;;;0.80;;
40515;SDS011;26216;53.724;9.898;2022-09-12T11:40:43;1.33;;;0.63;;
40515;SDS011;26216;53.724;9.898;2022-09-12T12:02:28;1.17;;;0.60;;
40515;SDS011;26216;53.724;9.898;2022-09-12T12:05:03;1.10;;;0.80;;
40515;SDS011;26216;53.724;9.898;2022-09-12T12:07:33;1.10;;;0.65;;
40515;SDS011;26216;53.724;9.898;2022-09-12T12:10:06;0.95;;;0.70;;
40515;SDS011;26216;53.724;9.898;2022-09-12T12:12:48;0.68;;;0.68;;
40515;SDS011;26216;53.724;9.898;2022-09-12T12:15:16;0.68;;;0.63;;
40515;SDS011;26216;53.724;9.898;2022-09-12T12:17:42;0.60;;;0.60;;
40515;SDS011;26216;53.724;9.898;2022-09-12T12:20:14;0.63;;;0.52;;
40515;SDS011;26216;53.724;9.898;2022-09-12T12:22:51;0.63;;;0.60;;
40515;SDS011;26216;53.724;9.898;2022-09-12T12:27:51;1.10;;;0.70;;
40515;SDS011;26216;53.724;9.898;2022-09-12T12:35:43;1.20;;;0.70;;
40515;SDS011;26216;53.724;9.898;2022-09-12T12:43:44;0.82;;;0.80;;
40515;SDS011;26216;53.724;9.898;2022-09-12T12:46:35;2.08;;;1.05;;
40515;SDS011;26216;53.724;9.898;2022-09-12T12:49:20;0.60;;;0.60;;
40515;SDS011;26216;53.724;9.898;2022-09-12T12:54:25;0.80;;;0.70;;
40515;SDS011;26216;53.724;9.898;2022-09-12T12:57:39;1.00;;;0.60;;
40515;SDS011;26216;53.724;9.898;2022-09-12T13:05:22;2.17;;;0.80;;
40515;SDS011;26216;53.724;9.898;2022-09-12T13:07:54;1.35;;;0.98;;
40515;SDS011;26216;53.724;9.898;2022-09-12T13:10:23;1.10;;;1.00;;
40515;SDS011;26216;53.724;9.898;2022-09-12T13:12:53;1.27;;;0.77;;
40515;SDS011;26216;53.724;9.898;2022-09-12T13:18:00;1.92;;;1.15;;
40515;SDS011;26216;53.724;9.898;2022-09-12T13:20:34;0.80;;;0.68;;
40515;SDS011;26216;53.724;9.898;2022-09-12T13:23:20;0.82;;;0.80;;
40515;SDS011;26216;53.724;9.898;2022-09-12T13:25:56;0.90;;;0.50;;
40515;SDS011;26216;53.724;9.898;2022-09-12T13:28:25;1.65;;;0.70;;
40515;SDS011;26216;53.724;9.898;2022-09-12T13:31:09;0.88;;;0.70;;
40515;SDS011;26216;53.724;9.898;2022-09-12T13:33:57;1.00;;;0.80;;
40515;SDS011;26216;53.724;9.898;2022-09-12T13:36:30;1.40;;;0.85;;
40515;SDS011;26216;53.724;9.898;2022-09-12T13:47:36;0.95;;;0.70;;
40515;SDS011;26216;53.724;9.898;2022-09-12T13:50:13;0.80;;;0.70;;
40515;SDS011;26216;53.724;9.898;2022-09-12T13:52:46;1.10;;;1.00;;
40515;SDS011;26216;53.724;9.898;2022-09-12T13:55:22;0.98;;;0.60;;
40515;SDS011;26216;53.724;9.898;2022-09-12T13:58:01;1.00;;;0.70;;
40515;SDS011;26216;53.724;9.898;2022-09-12T14:00:45;0.80;;;0.80;;
40515;SDS011;26216;53.724;9.898;2022-09-12T14:03:28;1.67;;;1.02;;
40515;SDS011;26216;53.724;9.898;2022-09-12T14:06:14;0.88;;;0.75;;
40515;SDS011;26216;53.724;9.898;2022-09-12T14:08:41;1.50;;;0.95;;
40515;SDS011;26216;53.724;9.898;2022-09-12T14:11:08;1.17;;;0.93;;
40515;SDS011;26216;53.724;9.898;2022-09-12T14:13:54;1.38;;;0.95;;
40515;SDS011;26216;53.724;9.898;2022-09-12T14:16:22;1.08;;;0.93;;
40515;SDS011;26216;53.724;9.898;2022-09-12T14:18:53;1.15;;;0.90;;
40515;SDS011;26216;53.724;9.898;2022-09-12T14:26:29;1.65;;;1.00;;
40515;SDS011;26216;53.724;9.898;2022-09-12T14:28:59;1.40;;;1.00;;
40515;SDS011;26216;53.724;9.898;2022-09-12T14:31:29;1.17;;;1.08;;
40515;SDS011;26216;53.724;9.898;2022-09-12T14:34:08;1.08;;;0.88;;
40515;SDS011;26216;53.724;9.898;2022-09-12T14:36:43;1.92;;;1.20;;
40515;SDS011;26216;53.724;9.898;2022-09-12T14:44:38;1.10;;;0.90;;
40515;SDS011;26216;53.724;9.898;2022-09-12T14:47:14;1.70;;;1.10;;
40515;SDS011;26216;53.724;9.898;2022-09-12T14:49:46;1.20;;;1.10;;
40515;SDS011;26216;53.724;9.898;2022-09-12T14:52:31;1.08;;;0.95;;
40515;SDS011;26216;53.724;9.898;2022-09-12T14:55:00;2.00;;;1.35;;
40515;SDS011;26216;53.724;9.898;2022-09-12T15:02:37;2.10;;;1.40;;
40515;SDS011;26216;53.724;9.898;2022-09-12T15:07:49;1.88;;;1.10;;
40515;SDS011;26216;53.724;9.898;2022-09-12T15:15:35;2.35;;;1.23;;
40515;SDS011;26216;53.724;9.898;2022-09-12T15:18:02;1.27;;;1.15;;
40515;SDS011;26216;53.724;9.898;2022-09-12T15:20:29;1.33;;;1.20;;
40515;SDS011;26216;53.724;9.898;2022-09-12T15:22:56;1.17;;;0.98;;
40515;SDS011;26216;53.724;9.898;2022-09-12T15:25:23;2.58;;;1.42;;
40515;SDS011;26216;53.724;9.898;2022-09-12T15:27:49;1.45;;;1.00;;
40515;SDS011;26216;53.724;9.898;2022-09-12T15:30:17;1.35;;;1.20;;
40515;SDS011;26216;53.724;9.898;2022-09-12T15:32:43;1.50;;;1.10;;
40515;SDS011;26216;53.724;9.898;2022-09-12T15:35:16;1.33;;;1.23;;
40515;SDS011;26216;53.724;9.898;2022-09-12T15:37:47;4.57;;;1.77;;
40515;SDS011;26216;53.724;9.898;2022-09-12T15:40:13;1.70;;;1.45;;
40515;SDS011;26216;53.724;9.898;2022-09-12T15:42:40;1.58;;;1.10;;
40515;SDS011;26216;53.724;9.898;2022-09-12T15:45:17;1.75;;;1.40;;
40515;SDS011;26216;53.724;9.898;2022-09-12T15:47:46;2.13;;;1.20;;
40515;SDS011;26216;53.724;9.898;2022-09-12T15:50:12;1.85;;;1.20;;
40515;SDS011;26216;53.724;9.898;2022-09-12T15:52:38;2.58;;;1.13;;
40515;SDS011;26216;53.724;9.898;2022-09-12T15:55:05;2.58;;;1.35;;
40515;SDS011;26216;53.724;9.898;2022-09-12T15:57:45;1.53;;;1.17;;
40515;SDS011;26216;53.724;9.898;2022-09-12T16:00:12;1.92;;;1.23;;
40515;SDS011;26216;53.724;9.898;2022-09-12T16:02:40;1.17;;;0.93;;
40515;SDS011;26216;53.724;9.898;2022-09-12T16:05:09;1.95;;;1.30;;
40515;SDS011;26216;53.724;9.898;2022-09-12T16:07:39;1.92;;;1.10;;
40515;SDS011;26216;53.724;9.898;2022-09-12T16:10:05;1.52;;;1.13;;
40515;SDS011;26216;53.724;9.898;2022-09-12T16:12:31;1.83;;;1.13;;
40515;SDS011;26216;53.724;9.898;2022-09-12T16:14:57;1.85;;;1.30;;
40515;SDS011;26216;53.724;9.898;2022-09-12T16:17:23;1.20;;;1.10;;
40515;SDS011;26216;53.724;9.898;2022-09-12T16:19:49;1.73;;;1.17;;
40515;SDS011;26216;53.724;9.898;2022-09-12T16:22:15;1.20;;;1.10;;
40515;SDS011;26216;53.724;9.898;2022-09-12T16:24:41;1.55;;;1.25;;
40515;SDS011;26216;53.724;9.898;2022-09-12T16:27:08;1.70;;;1.30;;
40515;SDS011;26216;53.724;9.898;2022-09-12T16:29:33;1.52;;;1.17;;
40515;SDS011;26216;53.724;9.898;2022-09-12T16:31:59;2.40;;;1.20;;
40515;SDS011;26216;53.724;9.898;2022-09-12T16:34:25;1.50;;;1.20;;
40515;SDS011;26216;53.724;9.898;2022-09-12T16:36:51;1.48;;;1.33;;
40515;SDS011;26216;53.724;9.898;2022-09-12T16:39:17;1.70;;;1.45;;
40515;SDS011;26216;53.724;9.898;2022-09-12T16:41:44;2.15;;;1.58;;
40515;SDS011;26216;53.724;9.898;2022-09-12T16:44:10;2.35;;;1.45;;
40515;SDS011;26216;53.724;9.898;2022-09-12T16:46:36;1.67;;;1.30;;
40515;SDS011;26216;53.724;9.898;2022-09-12T16:49:03;1.77;;;1.30;;
40515;SDS011;26216;53.724;9.898;2022-09-12T16:51:31;2.45;;;1.58;;
40515;SDS011;26216;53.724;9.898;2022-09-12T16:54:00;1.70;;;1.40;;
40515;SDS011;26216;53.724;9.898;2022-09-12T16:56:26;1.85;;;1.50;;
40515;SDS011;26216;53.724;9.898;2022-09-12T16:58:52;1.40;;;1.30;;
40515;SDS011;26216;53.724;9.898;2022-09-12T17:01:21;1.60;;;1.05;;
40515;SDS011;26216;53.724;9.898;2022-09-12T17:03:52;1.23;;;1.13;;
40515;SDS011;26216;53.724;9.898;2022-09-12T17:06:20;1.38;;;1.15;;
40515;SDS011;26216;53.724;9.898;2022-09-12T17:08:48;1.42;;;1.30;;
40515;SDS011;26216;53.724;9.898;2022-09-12T17:11:17;1.45;;;1.20;;
40515;SDS011;26216;53.724;9.898;2022-09-12T17:13:58;1.60;;;1.30;;
40515;SDS011;26216;53.724;9.898;2022-09-12T17:16:25;1.30;;;1.20;;
40515;SDS011;26216;53.724;9.898;2022-09-12T17:18:52;1.58;;;1.27;;
40515;SDS011;26216;53.724;9.898;2022-09-12T17:21:18;1.48;;;1.27;;
40515;SDS011;26216;53.724;9.898;2022-09-12T17:23:45;1.23;;;1.10;;
40515;SDS011;26216;53.724;9.898;2022-09-12T17:26:12;1.48;;;1.30;;
40515;SDS011;26216;53.724;9.898;2022-09-12T17:28:39;1.65;;;1.23;;
40515;SDS011;26216;53.724;9.898;2022-09-12T17:31:06;1.73;;;1.40;;
40515;SDS011;26216;53.724;9.898;2022-09-12T17:33:34;2.03;;;1.30;;
40515;SDS011;26216;53.724;9.898;2022-09-12T17:36:01;1.23;;;0.90;;
40515;SDS011;26216;53.724;9.898;2022-09-12T17:38:33;2.50;;;1.30;;
40515;SDS011;26216;53.724;9.898;2022-09-12T17:41:04;1.77;;;1.27;;
40515;SDS011;26216;53.724;9.898;2022-09-12T17:43:34;1.55;;;1.30;;
40515;SDS011;26216;53.724;9.898;2022-09-12T17:46:02;2.00;;;1.50;;
40515;SDS011;26216;53.724;9.898;2022-09-12T17:48:29;1.42;;;1.17;;
40515;SDS011;26216;53.724;9.898;2022-09-12T17:50:55;2.10;;;1.60;;
40515;SDS011;26216;53.724;9.898;2022-09-12T17:53:21;1.83;;;1.13;;
40515;SDS011;26216;53.724;9.898;2022-09-12T17:55:47;1.63;;;1.52;;
40515;SDS011;26216;53.724;9.898;2022-09-12T17:58:14;1.55;;;1.40;;
40515;SDS011;26216;53.724;9.898;2022-09-12T18:00:41;2.67;;;1.50;;
40515;SDS011;26216;53.724;9.898;2022-09-12T18:03:26;1.42;;;1.20;;
40515;SDS011;26216;53.724;9.898;2022-09-12T18:05:53;1.42;;;1.33;;
40515;SDS011;26216;53.724;9.898;2022-09-12T18:08:21;1.65;;;1.35;;
40515;SDS011;26216;53.724;9.898;2022-09-12T18:10:49;1.90;;;1.23;;
40515;SDS011;26216;53.724;9.898;2022-09-12T18:13:16;1.52;;;1.35;;